Time;durP1;ratioP1;P1;durP2;ratioP2;P2;SDS_P1;SDS_P2;PMS_P1;PMS_P2;Temp;Humidity;BMP_temperature;BMP_pressure;BME280_temperature;BME280_humidity;BME280_pressure;Samples;Min_cycle;Max_cycle;Signal;HPM_P1;HPM_P2
2022/01/16 00:00:18;;;;;;;99.63;39.72;;;;;;;0.32;70.69;99706.00;5094279;28;20027;-48
2022/01/16 00:05:28;;;;;;;86.53;43.03;;;;;;;0.51;70.65;99708.13;5094182;28;20039;-47
2022/01/16 00:07:55;;;;;;;82.25;40.45;;;;;;;0.66;70.61;99717.31;5094215;28;20032;-47
2022/01/16 00:10:22;;;;;;;71.50;40.95;;;;;;;0.77;70.18;99693.31;5094061;28;20173;-47
2022/01/16 00:12:49;;;;;;;85.95;40.53;;;;;;;0.66;68.36;99678.56;5092791;28;20085;-47
2022/01/16 00:15:16;;;;;;;149.73;46.38;;;;;;;0.33;67.46;99690.44;5093859;28;20028;-48
2022/01/16 00:18:49;;;;;;;83.07;40.30;;;;;;;-0.01;68.61;99687.66;5093913;28;20028;-46
2022/01/16 00:20:38;;;;;;;93.83;42.33;;;;;;;-0.31;68.63;99705.28;5084473;28;20441;-47
2022/01/16 00:23:06;;;;;;;142.90;50.42;;;;;;;-0.29;69.77;99693.91;5093847;28;20420;-48
2022/01/16 00:25:31;;;;;;;88.57;43.30;;;;;;;-0.17;70.34;99681.09;5093722;28;20032;-46
2022/01/16 00:27:57;;;;;;;77.50;45.15;;;;;;;-0.03;70.63;99696.44;5093739;28;20117;-47
2022/01/16 00:30:23;;;;;;;72.80;37.33;;;;;;;0.03;70.23;99683.09;5093361;28;20044;-48
2022/01/16 00:32:48;;;;;;;70.85;37.05;;;;;;;0.07;70.71;99694.03;5093564;28;20020;-48
2022/01/16 00:35:14;;;;;;;64.30;35.72;;;;;;;0.12;70.34;99694.53;5092165;28;20024;-47
2022/01/16 00:37:41;;;;;;;64.43;36.15;;;;;;;0.13;70.84;99712.50;5093493;28;20028;-48
2022/01/16 00:40:10;;;;;;;71.80;40.30;;;;;;;0.10;70.93;99754.03;5093462;28;20050;-48
2022/01/16 00:42:36;;;;;;;118.22;43.70;;;;;;;0.01;70.55;99740.91;5092033;28;20107;-47
2022/01/16 00:45:03;;;;;;;69.00;39.25;;;;;;;0.00;71.39;99776.22;5092004;28;20035;-49
2022/01/16 00:47:29;;;;;;;143.15;44.45;;;;;;;-0.14;70.34;99737.63;5093331;28;20562;-48
2022/01/16 00:49:55;;;;;;;80.80;41.45;;;;;;;-0.28;70.65;99760.06;5093259;28;20024;-48
2022/01/16 00:52:20;;;;;;;118.80;44.53;;;;;;;-0.39;70.58;99733.34;5093186;28;20032;-48
2022/01/16 00:54:46;;;;;;;90.18;42.10;;;;;;;-0.55;71.11;99755.00;5092321;28;20111;-48
2022/01/16 00:57:12;;;;;;;107.18;44.97;;;;;;;-0.65;70.70;99759.94;5093098;28;20027;-46
2022/01/16 00:59:38;;;;;;;112.50;39.15;;;;;;;-0.75;70.57;99758.06;5091764;28;20447;-48
2022/01/16 01:02:04;;;;;;;97.75;41.15;;;;;;;-0.92;70.74;99707.66;5093046;28;20034;-47
2022/01/16 01:04:30;;;;;;;90.25;37.47;;;;;;;-1.05;70.93;99672.41;5092984;28;20032;-46
2022/01/16 01:06:55;;;;;;;90.10;40.95;;;;;;;-1.10;71.56;99660.75;5092893;28;20028;-47
2022/01/16 01:09:21;;;;;;;91.78;40.33;;;;;;;-1.15;71.24;99657.66;5092907;28;20074;-48
2022/01/16 01:11:49;;;;;;;110.50;37.90;;;;;;;-1.16;72.01;99661.16;5092860;28;20097;-46
2022/01/16 01:14:37;;;;;;;152.85;44.22;;;;;;;-1.23;71.39;99658.16;5092752;28;20552;-47
2022/01/16 01:17:04;;;;;;;125.82;43.08;;;;;;;-1.28;71.86;99701.41;5092803;28;20036;-48
2022/01/16 01:19:34;;;;;;;100.53;42.55;;;;;;;-1.19;72.40;99716.25;5091393;28;20405;-47
2022/01/16 01:22:02;;;;;;;101.72;43.13;;;;;;;-1.03;72.88;99745.28;5091407;28;20070;-46
2022/01/16 01:24:29;;;;;;;90.80;43.50;;;;;;;-0.91;72.30;99753.91;5091297;28;20444;-47
2022/01/16 01:29:27;;;;;;;96.25;44.72;;;;;;;-0.79;72.16;99772.09;5092524;28;20066;-48
2022/01/16 01:31:53;;;;;;;95.03;44.20;;;;;;;-0.68;72.57;99775.63;5090946;28;20568;-47
2022/01/16 01:34:19;;;;;;;88.85;43.15;;;;;;;-0.59;71.29;99765.63;5092367;28;20134;-46
2022/01/16 01:36:49;;;;;;;90.95;48.10;;;;;;;-0.68;71.36;99761.91;5092422;28;20032;-47
2022/01/16 01:39:22;;;;;;;92.35;43.95;;;;;;;-0.69;71.57;99767.97;5092386;28;20078;-46
2022/01/16 01:41:51;;;;;;;88.68;42.78;;;;;;;-0.79;71.07;99769.50;5092312;28;20038;-46
2022/01/16 01:52:31;;;;;;;93.70;44.03;;;;;;;-1.12;70.81;99805.09;5092487;28;20046;-48
2022/01/16 01:54:57;;;;;;;115.70;44.35;;;;;;;-1.11;71.27;99798.19;5090750;28;20020;-47
2022/01/16 01:57:23;;;;;;;107.82;39.90;;;;;;;-1.16;71.09;99795.91;5090800;28;20027;-48
2022/01/16 01:59:49;;;;;;;110.25;33.67;;;;;;;-1.22;71.12;99784.25;5092149;28;20017;-48
2022/01/16 02:02:14;;;;;;;127.15;39.58;;;;;;;-1.28;71.98;99796.69;5091982;28;20123;-48
2022/01/16 02:04:40;;;;;;;133.05;40.00;;;;;;;-1.32;72.36;99815.84;5091936;28;20021;-48
2022/01/16 02:07:06;;;;;;;98.13;40.25;;;;;;;-1.41;72.43;99806.94;5090571;28;20032;-47
2022/01/16 02:09:32;;;;;;;125.45;47.03;;;;;;;-1.44;72.37;99810.53;5091882;28;20020;-47
2022/01/16 02:11:58;;;;;;;160.10;38.45;;;;;;;-1.37;72.98;99807.56;5091891;28;20474;-48
2022/01/16 02:14:31;;;;;;;168.45;56.38;;;;;;;-1.44;72.07;99802.81;5090479;28;20055;-48
2022/01/16 02:36:05;;;;;;;72.78;38.17;;;;;;;-0.59;72.11;99814.59;5091993;28;20039;-47
2022/01/16 02:38:31;;;;;;;92.97;42.95;;;;;;;-0.59;72.48;99817.19;5091695;28;20428;-48
2022/01/16 02:41:01;;;;;;;86.07;42.53;;;;;;;-0.52;72.53;99819.25;5091626;28;20024;-47
2022/01/16 02:43:35;;;;;;;154.20;86.13;;;;;;;-0.44;71.08;99808.44;5091643;28;20017;-47
2022/01/16 02:48:39;;;;;;;106.38;42.22;;;;;;;-0.36;71.45;99815.66;5091668;28;20016;-48
2022/01/16 02:51:05;;;;;;;84.40;40.75;;;;;;;-0.31;71.34;99808.44;5091497;28;20047;-47
2022/01/16 02:53:31;;;;;;;69.97;37.10;;;;;;;-0.31;71.03;99809.25;5091435;28;20032;-48
2022/01/16 02:55:57;;;;;;;84.32;40.38;;;;;;;-0.48;69.46;99801.84;5091486;28;20024;-47
2022/01/16 02:58:23;;;;;;;75.72;39.40;;;;;;;-0.70;69.81;99792.13;5090194;28;20020;-49
2022/01/16 03:00:48;;;;;;;75.10;40.58;;;;;;;-0.82;70.93;99791.16;5090146;28;20039;-48
2022/01/16 03:03:14;;;;;;;78.80;40.80;;;;;;;-0.83;70.83;99789.50;5091458;28;20030;-47
2022/01/16 03:05:40;;;;;;;93.57;39.35;;;;;;;-0.76;71.64;99795.09;5091426;28;20394;-47
2022/01/16 03:08:06;;;;;;;79.65;37.33;;;;;;;-0.67;72.21;99803.03;5091366;28;20035;-48
2022/01/16 03:11:05;;;;;;;137.15;43.25;;;;;;;-0.51;71.77;99799.44;5090047;28;20497;-47
2022/01/16 03:13:32;;;;;;;138.15;36.88;;;;;;;-0.48;71.84;99804.41;5091346;28;20031;-49
2022/01/16 03:16:00;;;;;;;69.53;34.80;;;;;;;-0.52;71.67;99801.22;5091355;28;20023;-47
2022/01/16 03:23:36;;;;;;;66.55;33.70;;;;;;;-0.69;70.87;99788.59;5095303;28;20042;-48
2022/01/16 03:26:02;;;;;;;138.07;32.50;;;;;;;-0.73;71.32;99798.28;5094848;28;20111;-47
2022/01/16 03:28:27;;;;;;;111.70;32.17;;;;;;;-0.69;70.98;99801.50;5093546;28;20032;-48
2022/01/16 03:30:55;;;;;;;58.92;30.10;;;;;;;-0.66;71.55;99791.00;5094617;28;20052;-48
2022/01/16 03:33:21;;;;;;;155.00;35.25;;;;;;;-0.64;71.11;99782.22;5094680;28;20028;-48
2022/01/16 03:35:48;;;;;;;135.10;32.88;;;;;;;-0.76;70.74;99793.34;5094732;28;20069;-46
2022/01/16 03:38:15;;;;;;;110.80;30.80;;;;;;;-0.80;71.22;99776.44;5094716;28;20080;-47
2022/01/16 03:40:41;;;;;;;139.43;32.65;;;;;;;-0.84;71.18;99777.56;5093347;28;20473;-46
2022/01/16 03:43:14;;;;;;;75.32;33.13;;;;;;;-0.92;71.52;99790.94;5093230;28;20024;-47
2022/01/16 03:45:45;;;;;;;87.97;33.25;;;;;;;-0.89;71.23;99787.31;5094599;28;20024;-48
2022/01/16 03:48:11;;;;;;;82.38;32.40;;;;;;;-0.81;71.49;99779.91;5094585;28;20490;-48
2022/01/16 03:50:37;;;;;;;68.03;34.22;;;;;;;-0.75;71.63;99774.34;5094457;28;20371;-46
2022/01/16 03:53:04;;;;;;;84.85;31.20;;;;;;;-0.71;71.80;99775.81;5094402;28;20154;-48
2022/01/16 03:55:31;;;;;;;77.45;27.27;;;;;;;-0.76;71.59;99771.91;5092935;28;20063;-47
2022/01/16 03:57:57;;;;;;;85.55;30.77;;;;;;;-0.96;70.38;99786.09;5094370;28;20019;-47
2022/01/16 04:00:23;;;;;;;68.05;33.10;;;;;;;-1.12;70.92;99781.09;5092855;28;20024;-48
2022/01/16 04:02:49;;;;;;;68.85;29.48;;;;;;;-1.18;71.66;99782.31;5092882;28;20485;-48
2022/01/16 04:05:15;;;;;;;103.90;34.38;;;;;;;-1.25;71.32;99784.47;5094121;28;20027;-47
2022/01/16 04:07:40;;;;;;;78.35;34.08;;;;;;;-1.39;71.33;99788.81;5092803;28;20516;-47
2022/01/16 04:10:08;;;;;;;99.32;56.78;;;;;;;-1.48;71.54;99795.38;5093969;28;20440;-47
2022/01/16 04:12:37;;;;;;;114.43;41.03;;;;;;;-1.47;71.59;99795.28;5094004;28;20482;-47
2022/01/16 04:17:29;;;;;;;93.57;35.97;;;;;;;-1.44;71.81;99809.72;5093993;28;20573;-48
2022/01/16 04:19:54;;;;;;;67.90;36.10;;;;;;;-1.44;72.11;99807.13;5093869;28;20531;-49
2022/01/16 04:22:21;;;;;;;75.90;34.40;;;;;;;-1.33;72.76;99809.84;5092492;28;20387;-47
2022/01/16 04:24:46;;;;;;;118.93;39.92;;;;;;;-1.28;72.47;99794.94;5093778;28;20024;-46
2022/01/16 04:27:13;;;;;;;105.35;40.90;;;;;;;-1.31;71.56;99791.72;5092421;28;20561;-47
2022/01/16 04:29:45;;;;;;;117.75;42.13;;;;;;;-1.39;72.08;99787.06;5091001;28;20024;-48
2022/01/16 04:32:11;;;;;;;119.78;41.25;;;;;;;-1.41;72.11;99789.75;5092331;28;20043;-47
2022/01/16 04:34:37;;;;;;;95.68;35.80;;;;;;;-1.37;72.33;99797.28;5093534;28;20031;-45
2022/01/16 04:37:03;;;;;;;85.95;40.28;;;;;;;-1.43;72.27;99781.31;5093463;28;20034;-47
2022/01/16 04:39:34;;;;;;;89.35;42.28;;;;;;;-1.45;72.58;99803.75;5093570;28;20024;-50
2022/01/16 04:44:45;;;;;;;109.25;40.90;;;;;;;-1.32;72.17;99819.25;5093718;28;20081;-46
2022/01/16 04:47:11;;;;;;;85.60;42.78;;;;;;;-1.27;72.16;99811.22;5092020;28;20028;-46
2022/01/16 04:49:37;;;;;;;86.43;43.90;;;;;;;-1.33;71.61;99815.00;5093335;28;20540;-47
2022/01/16 04:52:03;;;;;;;101.05;39.67;;;;;;;-1.52;71.24;99823.06;5093261;28;20024;-47
2022/01/16 04:54:31;;;;;;;187.52;44.95;;;;;;;-1.66;71.64;99820.50;5093169;28;20023;-48
2022/01/16 04:56:58;;;;;;;147.15;42.25;;;;;;;-1.79;71.82;99812.72;5091932;28;20024;-47
2022/01/16 04:59:24;;;;;;;88.05;46.05;;;;;;;-1.81;72.32;99812.81;5091883;28;20028;-46
2022/01/16 05:01:49;;;;;;;114.20;45.35;;;;;;;-1.77;71.67;99816.03;5091876;28;20024;-47
2022/01/16 05:04:15;;;;;;;101.45;40.75;;;;;;;-1.83;71.54;99816.41;5093064;28;20035;-46
2022/01/16 05:06:41;;;;;;;71.78;37.60;;;;;;;-1.86;71.74;99825.09;5092920;28;20068;-48
2022/01/16 05:09:06;;;;;;;79.97;37.58;;;;;;;-1.92;71.41;99838.34;5092912;28;20117;-47
2022/01/16 05:11:32;;;;;;;90.70;44.00;;;;;;;-2.01;71.11;99821.72;5092901;28;20024;-46
2022/01/16 05:16:40;;;;;;;132.45;41.47;;;;;;;-2.14;71.98;99853.41;5092742;28;20453;-47
2022/01/16 05:19:14;;;;;;;130.43;42.88;;;;;;;-2.16;72.58;99839.81;5091509;28;20485;-47
2022/01/16 05:21:42;;;;;;;92.82;42.60;;;;;;;-2.23;72.67;99842.75;5092731;28;20081;-46
2022/01/16 05:24:10;;;;;;;73.47;31.65;;;;;;;-2.17;72.63;99841.56;5091331;28;20498;-48
2022/01/16 05:26:39;;;;;;;72.55;33.60;;;;;;;-2.22;71.37;99846.13;5092876;28;20115;-48
2022/01/16 05:29:05;;;;;;;71.93;38.13;;;;;;;-2.21;71.58;99858.91;5092544;28;20103;-47
2022/01/16 05:31:30;;;;;;;80.03;33.33;;;;;;;-2.26;71.51;99866.06;5091074;28;20036;-47
2022/01/16 05:33:56;;;;;;;80.53;37.25;;;;;;;-2.25;71.88;99862.56;5091090;28;20107;-48
2022/01/16 05:36:22;;;;;;;66.75;37.95;;;;;;;-2.31;72.04;99865.50;5091166;28;20446;-47
2022/01/16 05:38:49;;;;;;;69.10;38.45;;;;;;;-2.50;71.40;99868.28;5091126;28;20172;-46
2022/01/16 05:41:18;;;;;;;64.32;38.67;;;;;;;-2.53;72.34;99873.63;5090634;28;20016;-49
2022/01/16 05:43:44;;;;;;;60.45;35.25;;;;;;;-2.49;72.57;99864.81;5091019;28;20460;-49
2022/01/16 05:46:10;;;;;;;64.82;38.65;;;;;;;-2.53;71.83;99871.06;5090910;28;20024;-49
2022/01/16 05:48:36;;;;;;;61.15;37.20;;;;;;;-2.49;71.95;99875.09;5090954;28;20032;-46
2022/01/16 05:51:02;;;;;;;62.65;36.05;;;;;;;-2.49;71.37;99880.25;5090802;28;20417;-47
2022/01/16 05:53:27;;;;;;;61.72;33.38;;;;;;;-2.51;71.67;99871.78;5090807;28;20040;-48
2022/01/16 05:55:53;;;;;;;60.00;32.00;;;;;;;-2.35;72.00;99886.34;5092120;28;20035;-48
2022/01/16 05:58:19;;;;;;;56.88;33.65;;;;;;;-2.26;71.76;99889.19;5090791;28;20432;-47
2022/01/16 06:00:47;;;;;;;72.60;39.63;;;;;;;-2.17;71.23;99908.44;5090769;28;20080;-47
2022/01/16 06:03:13;;;;;;;67.47;36.67;;;;;;;-2.27;71.28;99917.59;5092090;28;20020;-47
2022/01/16 06:05:39;;;;;;;70.30;37.05;;;;;;;-2.37;71.09;99901.84;5092018;28;20064;-47
2022/01/16 06:08:11;;;;;;;61.67;33.38;;;;;;;-2.52;71.43;99907.84;5091977;28;20026;-48
2022/01/16 06:10:37;;;;;;;63.10;34.53;;;;;;;-2.52;71.76;99911.25;5090645;28;20042;-47
2022/01/16 06:13:04;;;;;;;64.43;33.90;;;;;;;-2.22;72.17;99908.66;5091900;28;20016;-46
2022/01/16 06:15:31;;;;;;;63.67;29.98;;;;;;;-1.98;71.22;99904.78;5090531;28;20040;-48
2022/01/16 06:17:57;;;;;;;80.95;42.00;;;;;;;-1.91;71.59;99895.75;5092145;28;20032;-48
2022/01/16 06:20:23;;;;;;;62.72;34.72;;;;;;;-1.85;71.04;99898.81;5090498;28;20439;-47
2022/01/16 06:22:49;;;;;;;59.70;30.63;;;;;;;-1.86;69.79;99894.56;5091838;28;20024;-47
2022/01/16 06:25:15;;;;;;;66.57;37.05;;;;;;;-1.96;69.96;99896.03;5091782;28;20486;-47
2022/01/16 06:27:41;;;;;;;59.33;32.58;;;;;;;-2.13;70.13;99901.34;5091745;28;20024;-47
2022/01/16 06:30:10;;;;;;;59.70;33.03;;;;;;;-2.21;70.64;99892.34;5091531;28;20044;-47
2022/01/16 06:32:36;;;;;;;61.25;33.97;;;;;;;-2.27;70.35;99905.56;5091845;28;20077;-48
2022/01/16 06:35:03;;;;;;;55.88;31.35;;;;;;;-2.34;70.26;99922.22;5091586;28;20024;-47
2022/01/16 06:37:29;;;;;;;58.38;31.63;;;;;;;-2.39;70.84;99931.97;5090384;28;20047;-45
2022/01/16 06:39:54;;;;;;;66.45;33.03;;;;;;;-2.31;70.80;99934.09;5091718;28;20434;-46
2022/01/16 06:42:20;;;;;;;80.93;34.65;;;;;;;-2.38;70.34;99930.22;5091609;28;20536;-47
2022/01/16 06:44:46;;;;;;;62.88;34.55;;;;;;;-2.36;70.76;99930.94;5091632;28;20501;-49
2022/01/16 06:47:11;;;;;;;62.83;32.45;;;;;;;-2.27;70.99;99931.25;5090303;28;20017;-47
2022/01/16 06:49:37;;;;;;;59.97;33.17;;;;;;;-2.22;70.74;99928.41;5090285;28;20427;-48
2022/01/16 06:52:03;;;;;;;58.80;33.63;;;;;;;-2.37;69.86;99931.84;5092019;28;20451;-48
2022/01/16 06:54:29;;;;;;;65.57;34.03;;;;;;;-2.49;70.33;99921.38;5095513;28;20028;-48
2022/01/16 06:56:55;;;;;;;63.60;33.55;;;;;;;-2.64;70.68;99935.06;5095476;28;20092;-49
2022/01/16 06:59:20;;;;;;;60.05;33.25;;;;;;;-2.69;70.51;99940.47;5094114;28;20020;-48
2022/01/16 07:01:46;;;;;;;56.15;32.22;;;;;;;-2.67;71.04;99941.22;5095432;28;20028;-47
2022/01/16 07:04:12;;;;;;;61.50;32.38;;;;;;;-2.80;71.09;99950.50;5095354;28;20016;-47
2022/01/16 07:06:37;;;;;;;62.22;36.78;;;;;;;-2.92;70.88;99961.44;5094245;28;20397;-46
2022/01/16 07:09:03;;;;;;;57.65;32.40;;;;;;;-3.04;71.21;99974.03;5095252;28;20210;-47
2022/01/16 07:11:29;;;;;;;64.03;35.00;;;;;;;-3.09;71.45;99977.75;5095157;28;20024;-48
2022/01/16 07:13:55;;;;;;;56.58;31.20;;;;;;;-3.15;71.27;99966.06;5095114;28;20520;-48
2022/01/16 07:16:21;;;;;;;54.20;32.35;;;;;;;-3.08;71.94;99954.56;5095124;28;20024;-47
2022/01/16 07:18:48;;;;;;;57.70;32.97;;;;;;;-2.93;72.44;99960.63;5093775;28;20085;-47
2022/01/16 07:21:14;;;;;;;60.13;33.10;;;;;;;-2.67;72.15;99969.47;5095044;28;20031;-47
2022/01/16 07:23:42;;;;;;;61.90;33.90;;;;;;;-2.42;71.45;99976.63;5095056;28;20027;-48
2022/01/16 07:26:08;;;;;;;63.13;33.95;;;;;;;-2.18;71.28;99972.78;5093592;28;20107;-48
2022/01/16 07:28:33;;;;;;;59.42;32.45;;;;;;;-2.00;71.39;99979.44;5094918;28;20107;-47
2022/01/16 07:30:59;;;;;;;56.53;32.72;;;;;;;-1.88;71.03;99986.47;5094539;28;20583;-48
2022/01/16 07:33:25;;;;;;;54.05;31.48;;;;;;;-1.83;71.34;99979.31;5094724;28;20071;-49
2022/01/16 07:35:50;;;;;;;59.10;32.92;;;;;;;-1.71;71.05;99977.78;5094737;28;20028;-47
2022/01/16 07:38:16;;;;;;;57.35;31.15;;;;;;;-1.66;71.31;99986.03;5094790;28;20087;-47
2022/01/16 07:40:42;;;;;;;63.47;33.58;;;;;;;-1.59;71.78;99983.94;5094680;28;20390;-48
2022/01/16 07:43:08;;;;;;;62.72;33.08;;;;;;;-1.53;71.50;99968.16;5093417;28;20024;-48
2022/01/16 07:45:34;;;;;;;55.50;31.17;;;;;;;-1.52;71.77;99974.94;5094579;28;20072;-47
2022/01/16 07:48:00;;;;;;;61.40;33.63;;;;;;;-1.46;71.91;99969.41;5094489;28;20017;-48
2022/01/16 07:50:26;;;;;;;62.53;36.28;;;;;;;-1.40;71.93;99960.50;5093199;28;20074;-47
2022/01/16 07:52:52;;;;;;;59.08;32.72;;;;;;;-1.34;72.37;99960.13;5094487;28;20044;-48
2022/01/16 07:55:21;;;;;;;57.05;32.53;;;;;;;-1.33;71.73;99960.94;5093005;28;20024;-49
2022/01/16 07:57:47;;;;;;;61.63;34.38;;;;;;;-1.38;72.08;99960.41;5094420;28;20027;-47
2022/01/16 08:00:13;;;;;;;60.85;32.08;;;;;;;-1.37;71.59;99962.88;5094273;28;20232;-48
2022/01/16 08:02:39;;;;;;;54.22;32.30;;;;;;;-1.39;71.43;99961.31;5094169;28;20016;-47
2022/01/16 08:05:05;;;;;;;55.20;31.77;;;;;;;-1.39;71.46;99963.91;5092667;28;20034;-48
2022/01/16 08:07:31;;;;;;;56.25;31.08;;;;;;;-1.27;71.99;99965.72;5094206;28;20047;-47
2022/01/16 08:09:56;;;;;;;55.63;32.90;;;;;;;-1.10;71.22;99969.88;5094099;28;20498;-48
2022/01/16 08:12:22;;;;;;;57.60;32.53;;;;;;;-1.02;70.71;99978.78;5092708;28;20020;-47
2022/01/16 08:14:48;;;;;;;62.97;33.80;;;;;;;-0.93;71.12;99979.94;5093934;28;20059;-48
2022/01/16 08:17:13;;;;;;;60.22;32.88;;;;;;;-0.79;70.86;99981.66;5093876;28;20055;-47
2022/01/16 08:19:39;;;;;;;61.67;34.45;;;;;;;-0.60;70.61;99986.53;5092642;28;20030;-48
2022/01/16 08:22:05;;;;;;;63.78;34.40;;;;;;;-0.47;69.63;99989.13;5092690;28;20020;-49
2022/01/16 08:24:30;;;;;;;69.70;35.20;;;;;;;-0.64;69.17;99988.47;5092633;28;20039;-48
2022/01/16 08:26:56;;;;;;;57.35;34.25;;;;;;;-0.54;69.61;99996.44;5093734;28;20103;-48
2022/01/16 08:29:22;;;;;;;62.63;34.05;;;;;;;-0.47;68.84;99997.69;5093755;28;20024;-47
2022/01/16 08:31:47;;;;;;;59.60;33.65;;;;;;;-0.43;68.42;99991.41;5093288;28;20032;-48
2022/01/16 08:34:13;;;;;;;61.03;32.38;;;;;;;-0.27;67.85;99993.03;5093601;28;20043;-47
2022/01/16 08:36:39;;;;;;;58.50;33.67;;;;;;;-0.17;67.19;99995.84;5093534;28;20413;-48
2022/01/16 08:39:04;;;;;;;62.92;35.70;;;;;;;0.10;67.09;99998.38;5093562;28;20012;-48
2022/01/16 08:41:32;;;;;;;78.60;46.80;;;;;;;0.43;67.33;99995.31;5093488;28;20024;-47
2022/01/16 08:43:58;;;;;;;66.85;39.22;;;;;;;0.66;66.90;99998.09;5093443;28;20028;-47
2022/01/16 08:46:24;;;;;;;335.67;266.45;;;;;;;0.89;66.40;100006.88;5093390;28;20509;-49
2022/01/16 08:48:52;;;;;;;64.47;39.20;;;;;;;1.11;65.84;100006.22;5093379;28;20513;-48
2022/01/16 08:51:18;;;;;;;72.13;42.20;;;;;;;1.31;65.32;100018.56;5093314;28;20031;-48
2022/01/16 08:53:45;;;;;;;63.05;38.08;;;;;;;1.49;65.24;100010.41;5093232;28;20028;-44
2022/01/16 08:56:13;;;;;;;64.60;35.22;;;;;;;1.67;65.17;100016.03;5093206;28;20027;-49
2022/01/16 08:58:38;;;;;;;58.25;34.75;;;;;;;1.92;64.26;100022.88;5093240;28;20101;-49
2022/01/16 09:01:04;;;;;;;63.85;34.38;;;;;;;1.96;63.82;100016.53;5093051;28;20074;-47
2022/01/16 09:03:30;;;;;;;63.47;35.70;;;;;;;2.10;63.71;100034.47;5093026;28;20020;-48
2022/01/16 09:05:56;;;;;;;63.95;35.90;;;;;;;2.12;63.50;100029.19;5091680;28;20409;-50
2022/01/16 09:08:21;;;;;;;60.08;35.47;;;;;;;2.11;63.34;100032.69;5092953;28;20428;-51
2022/01/16 09:10:48;;;;;;;64.60;34.70;;;;;;;2.15;62.95;100032.38;5092904;28;20031;-50
2022/01/16 09:13:17;;;;;;;61.33;35.33;;;;;;;2.12;62.42;100030.00;5091577;28;20024;-49
2022/01/16 09:15:44;;;;;;;57.67;34.47;;;;;;;2.19;62.34;100036.41;5090814;28;20028;-48
2022/01/16 09:18:10;;;;;;;61.25;34.63;;;;;;;2.61;62.80;100038.47;5092850;28;20103;-48
2022/01/16 09:20:37;;;;;;;57.08;35.92;;;;;;;2.91;62.41;100031.91;5092749;28;20503;-47
2022/01/16 09:23:03;;;;;;;60.47;35.92;;;;;;;3.77;61.77;100035.56;5092715;28;20016;-47
2022/01/16 09:25:29;;;;;;;54.45;34.03;;;;;;;4.67;60.47;100032.50;5092683;28;20103;-47
2022/01/16 09:27:55;;;;;;;56.85;35.15;;;;;;;5.46;58.80;100041.44;5092554;28;20553;-47
2022/01/16 09:30:25;;;;;;;55.45;34.35;;;;;;;6.34;58.56;100031.91;5090999;28;20048;-51
2022/01/16 09:32:51;;;;;;;51.00;33.88;;;;;;;7.50;57.12;100043.66;5092636;28;20098;-49
2022/01/16 09:35:18;;;;;;;53.90;35.42;;;;;;;8.44;55.20;100037.19;5092418;28;20023;-48
2022/01/16 09:37:44;;;;;;;51.97;34.75;;;;;;;9.21;53.42;100032.03;5092781;28;20086;-49
2022/01/16 09:40:12;;;;;;;50.40;35.72;;;;;;;9.64;50.87;100030.19;5092407;28;20023;-48
2022/01/16 09:42:39;;;;;;;50.72;34.83;;;;;;;9.90;50.64;100034.47;5092419;28;20020;-48
2022/01/16 09:45:07;;;;;;;47.25;34.97;;;;;;;10.63;48.79;100038.09;5092388;28;20024;-48
2022/01/16 09:47:33;;;;;;;48.17;35.20;;;;;;;11.14;47.64;100041.22;5092408;28;20062;-50
2022/01/16 09:49:59;;;;;;;48.58;35.83;;;;;;;11.62;46.66;100033.28;5092278;28;20043;-48
2022/01/16 09:52:25;;;;;;;46.90;36.20;;;;;;;12.27;45.29;100042.53;5090988;28;20065;-49
2022/01/16 09:54:51;;;;;;;46.15;34.83;;;;;;;12.04;43.80;100053.91;5090842;28;20069;-48
2022/01/16 09:57:18;;;;;;;48.38;33.97;;;;;;;11.12;42.43;100058.97;5092117;28;20016;-48
2022/01/16 09:59:45;;;;;;;57.03;39.17;;;;;;;10.09;42.75;100052.53;5092155;28;20020;-48
2022/01/16 10:02:11;;;;;;;46.50;34.78;;;;;;;9.33;42.82;100061.38;5091054;28;20421;-48
2022/01/16 10:04:39;;;;;;;49.20;35.63;;;;;;;9.00;43.79;100062.06;5090781;28;20028;-48
2022/01/16 10:07:11;;;;;;;47.50;36.67;;;;;;;9.05;44.75;100071.25;5091959;28;20020;-49
2022/01/16 10:09:39;;;;;;;53.53;35.40;;;;;;;9.63;44.39;100067.88;5091978;28;20035;-48
2022/01/16 10:12:15;;;;;;;49.90;35.60;;;;;;;9.69;42.35;100069.84;5090625;28;20174;-50
2022/01/16 10:14:49;;;;;;;47.67;35.15;;;;;;;9.73;43.52;100063.31;5091993;28;20024;-47
2022/01/16 10:17:23;;;;;;;45.70;34.50;;;;;;;9.75;42.25;100066.56;5091980;28;20028;-49
2022/01/16 10:20:04;;;;;;;53.53;37.85;;;;;;;9.01;41.96;100070.72;5090520;28;20054;-49
2022/01/16 10:22:38;;;;;;;47.42;35.15;;;;;;;8.48;42.91;100072.53;5091893;28;20024;-48
2022/01/16 10:25:06;;;;;;;53.42;37.50;;;;;;;7.97;43.31;100068.81;5090455;28;20518;-49
2022/01/16 10:27:35;;;;;;;53.10;37.85;;;;;;;7.66;44.19;100071.75;5094979;28;20107;-49
2022/01/16 10:30:04;;;;;;;53.28;38.53;;;;;;;7.42;44.53;100067.09;5095817;28;20497;-48
2022/01/16 10:32:31;;;;;;;56.13;37.60;;;;;;;7.19;44.56;100080.53;5096161;28;20374;-47
2022/01/16 10:35:20;;;;;;;55.80;39.33;;;;;;;6.96;45.75;100074.00;5095858;28;20050;-47
2022/01/16 10:37:48;;;;;;;52.13;34.42;;;;;;;7.15;46.86;100073.94;5095949;28;20016;-47
2022/01/16 10:40:19;;;;;;;53.63;36.05;;;;;;;7.71;46.32;100071.34;5094523;28;20123;-47
2022/01/16 10:42:49;;;;;;;52.33;35.30;;;;;;;8.92;44.40;100062.03;5095935;28;20058;-48
2022/01/16 10:45:16;;;;;;;57.85;36.97;;;;;;;9.34;43.98;100065.66;5094414;28;20036;-47
2022/01/16 10:47:54;;;;;;;54.33;37.88;;;;;;;9.55;42.44;100060.78;5095730;28;20524;-47
2022/01/16 10:50:31;;;;;;;50.25;36.88;;;;;;;9.55;42.41;100059.97;5095760;28;20051;-48
2022/01/16 10:53:05;;;;;;;49.92;35.00;;;;;;;9.29;42.86;100062.69;5095726;28;20462;-48
2022/01/16 10:55:35;;;;;;;55.17;35.92;;;;;;;9.34;42.71;100061.22;5094182;28;20028;-48
2022/01/16 10:58:13;;;;;;;52.72;36.35;;;;;;;9.85;42.34;100063.81;5095556;28;20501;-48
2022/01/16 11:00:45;;;;;;;49.05;35.70;;;;;;;10.18;41.44;100067.31;5094210;28;20481;-48
2022/01/16 11:03:13;;;;;;;51.33;36.20;;;;;;;9.83;40.86;100062.34;5095495;28;20024;-48
2022/01/16 11:05:43;;;;;;;65.43;49.17;;;;;;;9.49;42.15;100060.63;5095421;28;20031;-49
2022/01/16 11:08:14;;;;;;;55.47;39.17;;;;;;;9.62;42.08;100052.28;5095670;28;20032;-48
2022/01/16 11:10:46;;;;;;;55.67;40.53;;;;;;;10.29;41.79;100052.22;5094025;28;20032;-48
2022/01/16 11:13:20;;;;;;;79.07;45.30;;;;;;;10.35;40.88;100047.16;5095301;28;20028;-48
2022/01/16 11:15:51;;;;;;;65.43;41.75;;;;;;;9.87;40.89;100056.59;5093828;28;20032;-47
2022/01/16 11:18:19;;;;;;;52.20;38.20;;;;;;;9.48;41.44;100056.38;5095247;28;20382;-48
2022/01/16 11:20:55;;;;;;;56.65;36.47;;;;;;;9.23;41.86;100061.50;5095352;28;20043;-49
2022/01/16 11:25:59;;;;;;;52.20;36.15;;;;;;;9.17;41.38;100057.72;5095281;28;20397;-47
2022/01/16 11:28:25;;;;;;;67.05;37.30;;;;;;;8.85;42.45;100060.97;5095036;28;20024;-48
2022/01/16 11:30:54;;;;;;;81.60;39.03;;;;;;;8.64;42.31;100052.69;5093348;28;20050;-47
2022/01/16 11:33:22;;;;;;;62.33;37.65;;;;;;;8.32;42.93;100054.88;5094817;28;20428;-49
2022/01/16 11:35:53;;;;;;;54.80;35.65;;;;;;;8.03;43.89;100052.53;5094704;28;20023;-47
2022/01/16 11:38:20;;;;;;;58.30;36.85;;;;;;;7.90;43.58;100046.84;5094156;28;20028;-48
2022/01/16 11:40:48;;;;;;;56.13;35.97;;;;;;;7.83;44.32;100051.00;5094680;28;20047;-49
2022/01/16 11:43:23;;;;;;;58.45;37.55;;;;;;;7.94;44.34;100048.19;5094939;28;20393;-48
2022/01/16 11:46:04;;;;;;;56.97;37.08;;;;;;;7.96;44.74;100046.25;5093653;28;20119;-48
2022/01/16 11:49:04;;;;;;;59.60;39.08;;;;;;;7.81;44.86;100048.56;5094685;28;20071;-49
2022/01/16 11:51:32;;;;;;;66.78;38.65;;;;;;;7.72;45.09;100058.09;5094621;28;20032;-51
2022/01/16 11:53:58;;;;;;;58.38;39.10;;;;;;;7.65;45.80;100056.25;5093062;28;20032;-50
2022/01/16 11:56:39;;;;;;;53.40;36.03;;;;;;;7.63;45.68;100066.84;5094419;28;20024;-48
2022/01/16 11:59:29;;;;;;;54.10;35.65;;;;;;;7.53;45.75;100066.91;5094374;28;20058;-48
2022/01/16 12:01:59;;;;;;;56.15;37.00;;;;;;;7.32;45.72;100074.16;5094323;28;20024;-51
2022/01/16 12:04:31;;;;;;;64.78;42.13;;;;;;;7.34;45.70;100073.03;5093010;28;20028;-49
2022/01/16 12:07:19;;;;;;;57.97;38.22;;;;;;;7.36;46.16;100065.06;5094187;28;20013;-48
2022/01/16 12:12:14;;;;;;;172.77;44.33;;;;;;;7.24;45.95;100050.56;5094156;28;20070;-49